Beta version 0.4

Airbus 330-200

№RA-AST21

Boeing 737-800 NG

№RA-ART04

Airbus 320-200

№RA-AST51

Airbus 320-200

№RA-AST50

Airbus 330-200

№RA-AST21

Airbus 330-200

№RA-AST21

Airbus 320-200

№RA-AST50

Туполев - 154М

№RA-AST25

  • Aerostream Network
  • Aerostream Network
  • Aerostream Network
  • Aerostream Network
  • Aerostream Network
  • Aerostream Network
  • Aerostream Network
  • Aerostream Network
Информация о пилоте

Номер рейса Борт Аэропорт вылета Погодные условия вылета Эшелон Аэропорт прилёта Погодные условия прилёта Вертикальная скорость в момент касания Особенности полёта
ART163 320ULLIFL315EGLLEGLL 251720Z 24012KT CAVOK 10/05 Q1026 NOSIG-8Из-за неверного расчета снижения пришлось уходить на второй
ART163320ULLIFL315
AST164320EGLL051250Z 35006KT 320V040 8000 FEW008 BKN010 14/11 Q1007FL331ULLI051230Z 11006MPS 9999 OVC046 04/01 Q1032 60////// 10090072 NOSIG-73
UTC
Календарь событий
Статистика авиакомпании
Новые пилоты
Метеобрифинг
Для получения метара введите 4 буквы ICAO кода аэропорта и нажмите "Получить". Также можно ввести несколько аэропортов через пробел (Например: ULLI URRR @WY). Список аэропортов в этом файле, stations.txt.
     Одной строкой
 Расшифрованный

 METAR   
 TAF (прогноз)

 
Обратная связь

По всем вопросам обращайтесь по адресу inbox@http://aerostream-va.ru

Голосование
Rambler's Top100